sensor_id;sensor_type;location;lat;lon;timestamp;P1;durP1;ratioP1;P2;durP2;ratioP2
15573;SDS011;7888;46.748;8.102;2023-02-28T00:00:31;3.33;;;2.90;;
15573;SDS011;7888;46.748;8.102;2023-02-28T00:02:57;3.80;;;3.47;;
15573;SDS011;7888;46.748;8.102;2023-02-28T00:05:24;4.60;;;3.40;;
15573;SDS011;7888;46.748;8.102;2023-02-28T00:07:52;3.67;;;3.37;;
15573;SDS011;7888;46.748;8.102;2023-02-28T00:10:19;3.97;;;3.30;;
15573;SDS011;7888;46.748;8.102;2023-02-28T00:12:52;3.97;;;3.37;;
15573;SDS011;7888;46.748;8.102;2023-02-28T00:15:23;3.83;;;3.53;;
15573;SDS011;7888;46.748;8.102;2023-02-28T00:17:50;4.47;;;3.20;;
15573;SDS011;7888;46.748;8.102;2023-02-28T00:20:16;4.57;;;3.57;;
15573;SDS011;7888;46.748;8.102;2023-02-28T00:22:44;3.63;;;3.33;;
15573;SDS011;7888;46.748;8.102;2023-02-28T00:25:15;3.53;;;3.23;;
15573;SDS011;7888;46.748;8.102;2023-02-28T00:27:44;3.37;;;2.90;;
15573;SDS011;7888;46.748;8.102;2023-02-28T00:30:12;4.00;;;3.57;;
15573;SDS011;7888;46.748;8.102;2023-02-28T00:32:41;4.27;;;3.87;;
15573;SDS011;7888;46.748;8.102;2023-02-28T00:35:07;4.20;;;3.80;;
15573;SDS011;7888;46.748;8.102;2023-02-28T00:37:35;3.73;;;3.40;;
15573;SDS011;7888;46.748;8.102;2023-02-28T00:40:01;4.50;;;3.67;;
15573;SDS011;7888;46.748;8.102;2023-02-28T00:42:29;4.17;;;3.10;;
15573;SDS011;7888;46.748;8.102;2023-02-28T00:44:55;5.40;;;3.10;;
15573;SDS011;7888;46.748;8.102;2023-02-28T00:47:21;3.73;;;3.40;;
15573;SDS011;7888;46.748;8.102;2023-02-28T00:49:47;3.53;;;3.23;;
15573;SDS011;7888;46.748;8.102;2023-02-28T00:52:13;3.90;;;3.60;;
15573;SDS011;7888;46.748;8.102;2023-02-28T00:54:38;3.90;;;3.47;;
15573;SDS011;7888;46.748;8.102;2023-02-28T00:57:04;4.00;;;3.40;;
15573;SDS011;7888;46.748;8.102;2023-02-28T00:59:30;4.07;;;3.40;;
15573;SDS011;7888;46.748;8.102;2023-02-28T01:01:56;3.43;;;3.13;;
15573;SDS011;7888;46.748;8.102;2023-02-28T01:04:22;3.57;;;3.20;;
15573;SDS011;7888;46.748;8.102;2023-02-28T01:06:47;3.77;;;3.43;;
15573;SDS011;7888;46.748;8.102;2023-02-28T01:09:13;3.87;;;3.47;;
15573;SDS011;7888;46.748;8.102;2023-02-28T01:11:39;4.30;;;3.77;;
15573;SDS011;7888;46.748;8.102;2023-02-28T01:14:09;3.53;;;3.03;;
15573;SDS011;7888;46.748;8.102;2023-02-28T01:16:41;3.77;;;3.37;;
15573;SDS011;7888;46.748;8.102;2023-02-28T01:19:08;4.63;;;3.80;;
15573;SDS011;7888;46.748;8.102;2023-02-28T01:21:34;3.80;;;3.50;;
15573;SDS011;7888;46.748;8.102;2023-02-28T01:24:01;3.57;;;3.27;;
15573;SDS011;7888;46.748;8.102;2023-02-28T01:26:29;4.03;;;3.63;;
15573;SDS011;7888;46.748;8.102;2023-02-28T01:28:55;3.80;;;3.50;;
15573;SDS011;7888;46.748;8.102;2023-02-28T01:31:21;4.23;;;3.67;;
15573;SDS011;7888;46.748;8.102;2023-02-28T01:33:48;4.67;;;4.27;;
15573;SDS011;7888;46.748;8.102;2023-02-28T01:36:16;4.20;;;3.80;;
15573;SDS011;7888;46.748;8.102;2023-02-28T01:38:48;4.47;;;4.07;;
15573;SDS011;7888;46.748;8.102;2023-02-28T01:41:18;4.20;;;3.90;;
15573;SDS011;7888;46.748;8.102;2023-02-28T01:46:21;3.90;;;3.50;;
15573;SDS011;7888;46.748;8.102;2023-02-28T01:48:51;4.53;;;3.67;;
15573;SDS011;7888;46.748;8.102;2023-02-28T01:52:07;3.60;;;3.30;;
15573;SDS011;7888;46.748;8.102;2023-02-28T01:54:19;3.70;;;3.40;;
15573;SDS011;7888;46.748;8.102;2023-02-28T01:56:54;3.70;;;3.30;;
15573;SDS011;7888;46.748;8.102;2023-02-28T01:59:33;4.40;;;3.67;;
15573;SDS011;7888;46.748;8.102;2023-02-28T02:02:25;3.50;;;3.20;;
15573;SDS011;7888;46.748;8.102;2023-02-28T02:05:01;4.37;;;3.80;;
15573;SDS011;7888;46.748;8.102;2023-02-28T02:07:35;3.53;;;3.20;;
15573;SDS011;7888;46.748;8.102;2023-02-28T02:10:12;4.53;;;3.83;;
15573;SDS011;7888;46.748;8.102;2023-02-28T02:15:46;3.80;;;3.50;;
15573;SDS011;7888;46.748;8.102;2023-02-28T02:36:40;3.53;;;3.23;;
15573;SDS011;7888;46.748;8.102;2023-02-28T02:42:14;4.07;;;3.40;;
15573;SDS011;7888;46.748;8.102;2023-02-28T02:45:24;3.83;;;3.43;;
15573;SDS011;7888;46.748;8.102;2023-02-28T02:48:12;4.40;;;2.97;;
15573;SDS011;7888;46.748;8.102;2023-02-28T02:50:45;5.07;;;3.30;;
15573;SDS011;7888;46.748;8.102;2023-02-28T02:53:18;3.93;;;3.53;;
15573;SDS011;7888;46.748;8.102;2023-02-28T02:55:53;3.50;;;3.20;;
15573;SDS011;7888;46.748;8.102;2023-02-28T02:58:24;3.30;;;3.00;;
15573;SDS011;7888;46.748;8.102;2023-02-28T03:00:57;4.00;;;3.37;;
15573;SDS011;7888;46.748;8.102;2023-02-28T03:03:27;4.10;;;3.30;;
15573;SDS011;7888;46.748;8.102;2023-02-28T03:05:57;5.00;;;3.93;;
15573;SDS011;7888;46.748;8.102;2023-02-28T03:08:26;3.97;;;3.67;;
15573;SDS011;7888;46.748;8.102;2023-02-28T03:10:57;3.90;;;3.57;;
15573;SDS011;7888;46.748;8.102;2023-02-28T03:24:51;4.27;;;3.50;;
15573;SDS011;7888;46.748;8.102;2023-02-28T03:27:27;4.47;;;4.07;;
15573;SDS011;7888;46.748;8.102;2023-02-28T03:30:04;4.83;;;4.27;;
15573;SDS011;7888;46.748;8.102;2023-02-28T03:32:40;4.47;;;3.83;;
15573;SDS011;7888;46.748;8.102;2023-02-28T03:35:23;4.83;;;4.43;;
15573;SDS011;7888;46.748;8.102;2023-02-28T03:38:13;5.00;;;4.07;;
15573;SDS011;7888;46.748;8.102;2023-02-28T03:40:55;5.47;;;4.57;;
15573;SDS011;7888;46.748;8.102;2023-02-28T03:43:34;5.47;;;4.73;;
15573;SDS011;7888;46.748;8.102;2023-02-28T03:46:07;5.07;;;4.40;;
15573;SDS011;7888;46.748;8.102;2023-02-28T03:51:09;4.37;;;3.97;;
15573;SDS011;7888;46.748;8.102;2023-02-28T03:53:44;4.07;;;3.37;;
15573;SDS011;7888;46.748;8.102;2023-02-28T03:56:34;4.77;;;4.20;;
15573;SDS011;7888;46.748;8.102;2023-02-28T03:59:16;3.80;;;3.40;;
15573;SDS011;7888;46.748;8.102;2023-02-28T04:01:47;2.73;;;2.53;;
15573;SDS011;7888;46.748;8.102;2023-02-28T04:04:15;4.33;;;3.90;;
15573;SDS011;7888;46.748;8.102;2023-02-28T04:06:42;4.57;;;3.93;;
15573;SDS011;7888;46.748;8.102;2023-02-28T04:09:10;4.93;;;4.47;;
15573;SDS011;7888;46.748;8.102;2023-02-28T04:11:39;6.67;;;4.80;;
15573;SDS011;7888;46.748;8.102;2023-02-28T04:14:09;5.07;;;4.20;;
15573;SDS011;7888;46.748;8.102;2023-02-28T04:16:37;5.77;;;4.70;;
15573;SDS011;7888;46.748;8.102;2023-02-28T04:19:06;4.97;;;4.47;;
15573;SDS011;7888;46.748;8.102;2023-02-28T04:21:35;5.80;;;5.13;;
15573;SDS011;7888;46.748;8.102;2023-02-28T04:24:08;4.70;;;4.27;;
15573;SDS011;7888;46.748;8.102;2023-02-28T04:26:47;4.20;;;3.70;;
15573;SDS011;7888;46.748;8.102;2023-02-28T04:31:50;5.13;;;4.10;;
15573;SDS011;7888;46.748;8.102;2023-02-28T04:34:18;3.83;;;3.53;;
15573;SDS011;7888;46.748;8.102;2023-02-28T04:36:46;4.00;;;3.60;;
15573;SDS011;7888;46.748;8.102;2023-02-28T04:39:14;5.07;;;4.53;;
15573;SDS011;7888;46.748;8.102;2023-02-28T04:41:43;6.20;;;4.00;;
15573;SDS011;7888;46.748;8.102;2023-02-28T04:44:10;4.00;;;3.63;;
15573;SDS011;7888;46.748;8.102;2023-02-28T04:46:36;5.07;;;4.00;;
15573;SDS011;7888;46.748;8.102;2023-02-28T04:49:01;4.67;;;4.13;;
15573;SDS011;7888;46.748;8.102;2023-02-28T04:51:28;4.77;;;4.27;;
15573;SDS011;7888;46.748;8.102;2023-02-28T04:53:54;4.83;;;4.33;;
15573;SDS011;7888;46.748;8.102;2023-02-28T04:56:20;5.27;;;4.37;;
15573;SDS011;7888;46.748;8.102;2023-02-28T04:58:47;4.30;;;3.90;;
15573;SDS011;7888;46.748;8.102;2023-02-28T05:03:59;4.93;;;4.43;;
15573;SDS011;7888;46.748;8.102;2023-02-28T05:06:29;5.27;;;4.20;;
15573;SDS011;7888;46.748;8.102;2023-02-28T05:08:57;5.03;;;3.83;;
15573;SDS011;7888;46.748;8.102;2023-02-28T05:11:27;5.07;;;4.33;;
15573;SDS011;7888;46.748;8.102;2023-02-28T05:14:10;4.67;;;4.13;;
15573;SDS011;7888;46.748;8.102;2023-02-28T05:16:38;5.73;;;3.80;;
15573;SDS011;7888;46.748;8.102;2023-02-28T05:19:04;4.40;;;4.00;;
15573;SDS011;7888;46.748;8.102;2023-02-28T05:24:06;5.40;;;4.37;;
15573;SDS011;7888;46.748;8.102;2023-02-28T05:26:36;4.53;;;4.13;;
15573;SDS011;7888;46.748;8.102;2023-02-28T05:29:05;5.30;;;4.80;;
15573;SDS011;7888;46.748;8.102;2023-02-28T05:31:31;5.80;;;5.23;;
15573;SDS011;7888;46.748;8.102;2023-02-28T05:33:58;6.17;;;5.27;;
15573;SDS011;7888;46.748;8.102;2023-02-28T05:36:24;5.97;;;5.27;;
15573;SDS011;7888;46.748;8.102;2023-02-28T05:38:50;10.43;;;5.50;;
15573;SDS011;7888;46.748;8.102;2023-02-28T05:41:17;5.47;;;4.97;;
15573;SDS011;7888;46.748;8.102;2023-02-28T05:43:45;5.57;;;4.77;;
15573;SDS011;7888;46.748;8.102;2023-02-28T05:46:11;5.20;;;4.70;;
15573;SDS011;7888;46.748;8.102;2023-02-28T05:48:38;5.90;;;5.30;;
15573;SDS011;7888;46.748;8.102;2023-02-28T05:51:07;6.90;;;5.40;;
15573;SDS011;7888;46.748;8.102;2023-02-28T05:53:34;6.37;;;5.63;;
15573;SDS011;7888;46.748;8.102;2023-02-28T05:56:01;5.63;;;5.13;;
15573;SDS011;7888;46.748;8.102;2023-02-28T05:58:27;6.73;;;5.13;;
15573;SDS011;7888;46.748;8.102;2023-02-28T06:00:56;6.43;;;5.80;;
15573;SDS011;7888;46.748;8.102;2023-02-28T06:03:26;6.90;;;5.90;;
15573;SDS011;7888;46.748;8.102;2023-02-28T06:05:52;6.33;;;5.73;;
15573;SDS011;7888;46.748;8.102;2023-02-28T06:08:19;6.23;;;5.43;;
15573;SDS011;7888;46.748;8.102;2023-02-28T06:10:45;6.37;;;5.77;;
15573;SDS011;7888;46.748;8.102;2023-02-28T06:13:10;6.97;;;5.07;;
15573;SDS011;7888;46.748;8.102;2023-02-28T06:15:37;5.63;;;5.13;;
15573;SDS011;7888;46.748;8.102;2023-02-28T06:18:04;5.50;;;5.00;;
15573;SDS011;7888;46.748;8.102;2023-02-28T06:20:30;6.53;;;5.53;;
15573;SDS011;7888;46.748;8.102;2023-02-28T06:22:56;5.40;;;4.90;;
15573;SDS011;7888;46.748;8.102;2023-02-28T06:25:26;6.40;;;5.77;;
15573;SDS011;7888;46.748;8.102;2023-02-28T06:27:53;6.10;;;5.50;;
15573;SDS011;7888;46.748;8.102;2023-02-28T06:30:20;6.40;;;5.53;;
15573;SDS011;7888;46.748;8.102;2023-02-28T06:32:51;6.03;;;5.47;;
15573;SDS011;7888;46.748;8.102;2023-02-28T06:35:18;5.83;;;5.30;;
15573;SDS011;7888;46.748;8.102;2023-02-28T06:37:44;5.90;;;5.33;;
15573;SDS011;7888;46.748;8.102;2023-02-28T06:40:10;6.33;;;5.73;;
15573;SDS011;7888;46.748;8.102;2023-02-28T06:42:37;6.23;;;5.63;;
15573;SDS011;7888;46.748;8.102;2023-02-28T06:45:03;7.00;;;6.17;;
15573;SDS011;7888;46.748;8.102;2023-02-28T06:47:34;5.80;;;5.20;;
15573;SDS011;7888;46.748;8.102;2023-02-28T06:50:01;6.87;;;5.73;;
15573;SDS011;7888;46.748;8.102;2023-02-28T06:52:27;6.70;;;6.00;;
15573;SDS011;7888;46.748;8.102;2023-02-28T06:54:53;7.77;;;6.40;;
15573;SDS011;7888;46.748;8.102;2023-02-28T06:57:25;7.13;;;6.20;;
15573;SDS011;7888;46.748;8.102;2023-02-28T06:59:57;6.83;;;5.87;;
15573;SDS011;7888;46.748;8.102;2023-02-28T07:02:28;5.63;;;5.13;;
15573;SDS011;7888;46.748;8.102;2023-02-28T07:04:54;6.97;;;5.60;;
15573;SDS011;7888;46.748;8.102;2023-02-28T07:07:20;6.10;;;5.47;;
15573;SDS011;7888;46.748;8.102;2023-02-28T07:09:46;6.70;;;5.87;;
15573;SDS011;7888;46.748;8.102;2023-02-28T07:12:12;6.00;;;5.40;;
15573;SDS011;7888;46.748;8.102;2023-02-28T07:14:38;6.23;;;5.53;;
15573;SDS011;7888;46.748;8.102;2023-02-28T07:17:03;6.77;;;5.90;;
15573;SDS011;7888;46.748;8.102;2023-02-28T07:19:32;6.20;;;5.60;;
15573;SDS011;7888;46.748;8.102;2023-02-28T07:21:58;6.00;;;5.40;;
15573;SDS011;7888;46.748;8.102;2023-02-28T07:24:24;6.20;;;5.60;;
15573;SDS011;7888;46.748;8.102;2023-02-28T07:26:53;6.47;;;5.27;;
15573;SDS011;7888;46.748;8.102;2023-02-28T07:29:19;5.73;;;5.23;;
15573;SDS011;7888;46.748;8.102;2023-02-28T07:31:45;6.23;;;5.60;;
15573;SDS011;7888;46.748;8.102;2023-02-28T07:34:11;6.80;;;5.50;;
15573;SDS011;7888;46.748;8.102;2023-02-28T07:36:38;6.27;;;5.67;;
15573;SDS011;7888;46.748;8.102;2023-02-28T07:39:04;6.13;;;5.53;;
15573;SDS011;7888;46.748;8.102;2023-02-28T07:41:31;5.70;;;5.20;;
15573;SDS011;7888;46.748;8.102;2023-02-28T07:43:59;6.17;;;5.57;;
15573;SDS011;7888;46.748;8.102;2023-02-28T07:46:25;5.97;;;5.20;;
15573;SDS011;7888;46.748;8.102;2023-02-28T07:48:51;6.03;;;5.40;;
15573;SDS011;7888;46.748;8.102;2023-02-28T07:51:19;7.63;;;5.60;;
15573;SDS011;7888;46.748;8.102;2023-02-28T07:53:45;6.60;;;5.60;;
15573;SDS011;7888;46.748;8.102;2023-02-28T07:56:11;7.13;;;5.57;;
15573;SDS011;7888;46.748;8.102;2023-02-28T07:58:37;7.33;;;6.63;;
15573;SDS011;7888;46.748;8.102;2023-02-28T08:01:07;5.87;;;5.27;;
15573;SDS011;7888;46.748;8.102;2023-02-28T08:03:35;6.13;;;5.53;;
15573;SDS011;7888;46.748;8.102;2023-02-28T08:06:03;6.00;;;5.50;;
15573;SDS011;7888;46.748;8.102;2023-02-28T08:08:31;6.43;;;5.33;;
15573;SDS011;7888;46.748;8.102;2023-02-28T08:10:59;7.07;;;5.47;;
15573;SDS011;7888;46.748;8.102;2023-02-28T08:13:27;6.37;;;5.23;;
15573;SDS011;7888;46.748;8.102;2023-02-28T08:15:54;7.47;;;5.87;;
15573;SDS011;7888;46.748;8.102;2023-02-28T08:18:21;7.10;;;5.77;;
15573;SDS011;7888;46.748;8.102;2023-02-28T08:20:48;8.37;;;6.30;;
15573;SDS011;7888;46.748;8.102;2023-02-28T08:23:14;8.07;;;6.10;;
15573;SDS011;7888;46.748;8.102;2023-02-28T08:25:40;6.87;;;6.17;;
15573;SDS011;7888;46.748;8.102;2023-02-28T08:28:06;6.10;;;5.60;;
15573;SDS011;7888;46.748;8.102;2023-02-28T08:30:32;9.23;;;6.13;;
15573;SDS011;7888;46.748;8.102;2023-02-28T08:32:58;6.10;;;5.40;;
15573;SDS011;7888;46.748;8.102;2023-02-28T08:35:23;6.80;;;6.10;;
15573;SDS011;7888;46.748;8.102;2023-02-28T08:37:49;7.17;;;5.30;;
15573;SDS011;7888;46.748;8.102;2023-02-28T08:40:16;6.57;;;5.53;;
15573;SDS011;7888;46.748;8.102;2023-02-28T08:42:46;6.13;;;5.53;;
15573;SDS011;7888;46.748;8.102;2023-02-28T08:45:13;6.40;;;5.80;;
15573;SDS011;7888;46.748;8.102;2023-02-28T08:47:40;7.67;;;6.97;;
15573;SDS011;7888;46.748;8.102;2023-02-28T08:50:06;7.57;;;5.93;;
15573;SDS011;7888;46.748;8.102;2023-02-28T08:52:33;9.83;;;6.50;;
15573;SDS011;7888;46.748;8.102;2023-02-28T08:54:59;7.20;;;6.50;;
15573;SDS011;7888;46.748;8.102;2023-02-28T08:57:24;7.27;;;5.67;;
15573;SDS011;7888;46.748;8.102;2023-02-28T08:59:53;6.27;;;5.67;;
15573;SDS011;7888;46.748;8.102;2023-02-28T09:02:19;6.20;;;5.60;;
15573;SDS011;7888;46.748;8.102;2023-02-28T09:04:45;7.70;;;6.23;;
15573;SDS011;7888;46.748;8.102;2023-02-28T09:07:11;6.30;;;5.70;;
15573;SDS011;7888;46.748;8.102;2023-02-28T09:09:37;6.60;;;5.80;;
15573;SDS011;7888;46.748;8.102;2023-02-28T09:12:18;7.17;;;5.67;;
15573;SDS011;7888;46.748;8.102;2023-02-28T09:14:52;6.27;;;5.60;;
15573;SDS011;7888;46.748;8.102;2023-02-28T09:17:18;7.30;;;6.00;;
15573;SDS011;7888;46.748;8.102;2023-02-28T09:19:44;7.03;;;5.90;;
15573;SDS011;7888;46.748;8.102;2023-02-28T09:22:13;6.20;;;5.60;;
15573;SDS011;7888;46.748;8.102;2023-02-28T09:24:38;6.70;;;6.00;;
15573;SDS011;7888;46.748;8.102;2023-02-28T09:27:05;6.60;;;5.77;;
15573;SDS011;7888;46.748;8.102;2023-02-28T09:29:31;7.70;;;5.70;;
15573;SDS011;7888;46.748;8.102;2023-02-28T09:31:59;7.67;;;6.27;;
15573;SDS011;7888;46.748;8.102;2023-02-28T09:34:26;6.40;;;5.60;;
15573;SDS011;7888;46.748;8.102;2023-02-28T09:36:55;6.03;;;5.43;;
15573;SDS011;7888;46.748;8.102;2023-02-28T09:39:22;7.70;;;6.20;;
15573;SDS011;7888;46.748;8.102;2023-02-28T09:41:51;7.33;;;5.63;;
15573;SDS011;7888;46.748;8.102;2023-02-28T09:44:22;6.20;;;5.47;;
15573;SDS011;7888;46.748;8.102;2023-02-28T09:47:05;6.27;;;5.63;;
15573;SDS011;7888;46.748;8.102;2023-02-28T09:49:55;6.33;;;5.83;;
15573;SDS011;7888;46.748;8.102;2023-02-28T09:52:29;6.67;;;6.07;;
15573;SDS011;7888;46.748;8.102;2023-02-28T09:55:00;6.60;;;5.90;;
15573;SDS011;7888;46.748;8.102;2023-02-28T09:58:09;6.77;;;6.17;;
15573;SDS011;7888;46.748;8.102;2023-02-28T10:01:27;6.33;;;5.73;;
15573;SDS011;7888;46.748;8.102;2023-02-28T10:06:42;5.60;;;5.10;;
15573;SDS011;7888;46.748;8.102;2023-02-28T10:11:47;5.80;;;5.27;;
15573;SDS011;7888;46.748;8.102;2023-02-28T10:14:18;6.53;;;5.83;;
15573;SDS011;7888;46.748;8.102;2023-02-28T10:22:25;6.37;;;5.80;;
15573;SDS011;7888;46.748;8.102;2023-02-28T10:25:26;5.90;;;5.30;;
15573;SDS011;7888;46.748;8.102;2023-02-28T10:28:00;6.60;;;6.00;;
15573;SDS011;7888;46.748;8.102;2023-02-28T10:30:40;5.90;;;5.40;;
15573;SDS011;7888;46.748;8.102;2023-02-28T10:33:29;6.50;;;5.90;;
15573;SDS011;7888;46.748;8.102;2023-02-28T10:36:00;5.77;;;5.27;;
15573;SDS011;7888;46.748;8.102;2023-02-28T10:38:37;6.20;;;5.60;;
15573;SDS011;7888;46.748;8.102;2023-02-28T10:41:05;5.77;;;5.23;;
15573;SDS011;7888;46.748;8.102;2023-02-28T10:43:37;6.60;;;5.90;;
15573;SDS011;7888;46.748;8.102;2023-02-28T10:51:39;6.37;;;5.73;;
15573;SDS011;7888;46.748;8.102;2023-02-28T10:54:14;5.80;;;5.30;;
15573;SDS011;7888;46.748;8.102;2023-02-28T10:56:44;6.80;;;6.20;;
15573;SDS011;7888;46.748;8.102;2023-02-28T11:05:20;6.37;;;5.77;;
15573;SDS011;7888;46.748;8.102;2023-02-28T11:08:06;7.20;;;6.10;;
15573;SDS011;7888;46.748;8.102;2023-02-28T11:10:44;7.10;;;6.07;;
15573;SDS011;7888;46.748;8.102;2023-02-28T11:13:26;6.60;;;5.97;;
15573;SDS011;7888;46.748;8.102;2023-02-28T11:16:04;6.13;;;5.27;;
15573;SDS011;7888;46.748;8.102;2023-02-28T11:18:37;5.93;;;5.33;;
15573;SDS011;7888;46.748;8.102;2023-02-28T11:21:07;6.53;;;5.67;;
15573;SDS011;7888;46.748;8.102;2023-02-28T11:23:40;5.70;;;5.20;;
15573;SDS011;7888;46.748;8.102;2023-02-28T11:26:06;6.37;;;5.77;;
15573;SDS011;7888;46.748;8.102;2023-02-28T11:28:39;6.27;;;5.67;;
15573;SDS011;7888;46.748;8.102;2023-02-28T11:33:46;6.40;;;5.70;;
15573;SDS011;7888;46.748;8.102;2023-02-28T11:38:53;6.07;;;5.50;;
15573;SDS011;7888;46.748;8.102;2023-02-28T11:41:44;6.53;;;5.93;;
15573;SDS011;7888;46.748;8.102;2023-02-28T11:47:23;6.20;;;5.70;;
15573;SDS011;7888;46.748;8.102;2023-02-28T11:56:17;7.10;;;5.93;;
15573;SDS011;7888;46.748;8.102;2023-02-28T12:02:28;5.63;;;5.03;;
15573;SDS011;7888;46.748;8.102;2023-02-28T12:20:49;5.67;;;5.17;;
15573;SDS011;7888;46.748;8.102;2023-02-28T12:26:20;4.87;;;4.37;;
15573;SDS011;7888;46.748;8.102;2023-02-28T12:32:06;5.83;;;5.33;;
15573;SDS011;7888;46.748;8.102;2023-02-28T12:34:44;4.93;;;4.43;;
15573;SDS011;7888;46.748;8.102;2023-02-28T12:37:15;5.47;;;4.97;;
15573;SDS011;7888;46.748;8.102;2023-02-28T12:40:12;5.80;;;5.30;;
15573;SDS011;7888;46.748;8.102;2023-02-28T12:42:46;5.40;;;4.90;;
15573;SDS011;7888;46.748;8.102;2023-02-28T12:45:38;6.10;;;5.10;;
15573;SDS011;7888;46.748;8.102;2023-02-28T12:48:06;5.90;;;5.40;;
15573;SDS011;7888;46.748;8.102;2023-02-28T12:50:39;5.57;;;5.07;;
15573;SDS011;7888;46.748;8.102;2023-02-28T12:53:06;5.33;;;4.83;;
15573;SDS011;7888;46.748;8.102;2023-02-28T12:55:56;5.50;;;5.00;;
15573;SDS011;7888;46.748;8.102;2023-02-28T12:58:39;6.00;;;5.40;;
15573;SDS011;7888;46.748;8.102;2023-02-28T13:09:52;8.23;;;5.20;;
15573;SDS011;7888;46.748;8.102;2023-02-28T13:12:22;5.77;;;5.27;;
15573;SDS011;7888;46.748;8.102;2023-02-28T13:14:49;5.80;;;5.17;;
15573;SDS011;7888;46.748;8.102;2023-02-28T13:17:23;5.57;;;5.07;;
15573;SDS011;7888;46.748;8.102;2023-02-28T13:24:52;5.23;;;4.80;;
15573;SDS011;7888;46.748;8.102;2023-02-28T13:36:26;5.07;;;4.57;;
15573;SDS011;7888;46.748;8.102;2023-02-28T13:44:01;6.07;;;5.20;;
15573;SDS011;7888;46.748;8.102;2023-02-28T13:49:27;6.97;;;5.50;;
15573;SDS011;7888;46.748;8.102;2023-02-28T14:06:31;5.97;;;5.37;;
15573;SDS011;7888;46.748;8.102;2023-02-28T14:11:40;5.77;;;5.27;;
15573;SDS011;7888;46.748;8.102;2023-02-28T14:14:09;5.80;;;5.30;;
15573;SDS011;7888;46.748;8.102;2023-02-28T14:17:01;5.50;;;4.97;;
15573;SDS011;7888;46.748;8.102;2023-02-28T14:19:32;5.50;;;5.00;;
15573;SDS011;7888;46.748;8.102;2023-02-28T14:22:10;6.23;;;5.53;;
15573;SDS011;7888;46.748;8.102;2023-02-28T14:33:25;5.63;;;5.13;;
15573;SDS011;7888;46.748;8.102;2023-02-28T14:38:52;6.00;;;5.50;;
15573;SDS011;7888;46.748;8.102;2023-02-28T14:44:02;5.80;;;5.10;;
15573;SDS011;7888;46.748;8.102;2023-02-28T14:47:00;6.87;;;5.67;;
15573;SDS011;7888;46.748;8.102;2023-02-28T14:49:41;5.17;;;4.60;;
15573;SDS011;7888;46.748;8.102;2023-02-28T14:54:52;5.93;;;5.40;;
15573;SDS011;7888;46.748;8.102;2023-02-28T14:57:27;5.77;;;5.17;;
15573;SDS011;7888;46.748;8.102;2023-02-28T14:59:57;6.13;;;5.63;;
15573;SDS011;7888;46.748;8.102;2023-02-28T15:02:33;5.73;;;5.23;;
15573;SDS011;7888;46.748;8.102;2023-02-28T15:05:01;6.03;;;5.50;;
15573;SDS011;7888;46.748;8.102;2023-02-28T15:07:43;5.73;;;4.77;;
15573;SDS011;7888;46.748;8.102;2023-02-28T15:12:36;5.73;;;5.23;;
15573;SDS011;7888;46.748;8.102;2023-02-28T15:15:05;5.43;;;4.97;;
15573;SDS011;7888;46.748;8.102;2023-02-28T15:17:38;5.30;;;4.80;;
15573;SDS011;7888;46.748;8.102;2023-02-28T15:20:10;6.00;;;5.40;;
15573;SDS011;7888;46.748;8.102;2023-02-28T15:22:40;5.50;;;5.00;;
15573;SDS011;7888;46.748;8.102;2023-02-28T15:25:09;5.73;;;5.23;;
15573;SDS011;7888;46.748;8.102;2023-02-28T15:27:42;5.47;;;4.97;;
15573;SDS011;7888;46.748;8.102;2023-02-28T15:30:15;6.60;;;6.00;;
15573;SDS011;7888;46.748;8.102;2023-02-28T15:33:05;5.60;;;5.00;;
15573;SDS011;7888;46.748;8.102;2023-02-28T15:36:16;5.43;;;4.67;;
15573;SDS011;7888;46.748;8.102;2023-02-28T15:38:49;5.40;;;4.80;;
15573;SDS011;7888;46.748;8.102;2023-02-28T15:41:30;5.87;;;5.27;;
15573;SDS011;7888;46.748;8.102;2023-02-28T15:44:22;6.17;;;5.60;;
15573;SDS011;7888;46.748;8.102;2023-02-28T15:49:37;5.80;;;5.20;;
15573;SDS011;7888;46.748;8.102;2023-02-28T15:57:52;4.97;;;4.47;;
15573;SDS011;7888;46.748;8.102;2023-02-28T16:00:25;5.43;;;4.93;;
15573;SDS011;7888;46.748;8.102;2023-02-28T16:02:52;5.43;;;4.90;;
15573;SDS011;7888;46.748;8.102;2023-02-28T16:05:20;4.97;;;4.57;;
15573;SDS011;7888;46.748;8.102;2023-02-28T16:08:15;5.17;;;4.63;;
15573;SDS011;7888;46.748;8.102;2023-02-28T16:10:40;4.93;;;4.43;;
15573;SDS011;7888;46.748;8.102;2023-02-28T16:13:08;5.83;;;5.23;;
15573;SDS011;7888;46.748;8.102;2023-02-28T16:15:41;4.87;;;4.47;;
15573;SDS011;7888;46.748;8.102;2023-02-28T16:18:11;5.67;;;5.17;;
15573;SDS011;7888;46.748;8.102;2023-02-28T16:20:38;5.40;;;4.83;;
15573;SDS011;7888;46.748;8.102;2023-02-28T16:23:04;5.87;;;5.37;;
15573;SDS011;7888;46.748;8.102;2023-02-28T16:25:34;5.90;;;5.23;;
15573;SDS011;7888;46.748;8.102;2023-02-28T16:28:27;5.60;;;5.00;;
15573;SDS011;7888;46.748;8.102;2023-02-28T16:31:01;5.33;;;4.87;;
15573;SDS011;7888;46.748;8.102;2023-02-28T16:33:31;5.50;;;5.00;;
15573;SDS011;7888;46.748;8.102;2023-02-28T16:35:57;5.77;;;5.27;;
15573;SDS011;7888;46.748;8.102;2023-02-28T16:38:24;5.60;;;5.10;;
15573;SDS011;7888;46.748;8.102;2023-02-28T16:40:51;6.40;;;5.37;;
15573;SDS011;7888;46.748;8.102;2023-02-28T16:43:22;5.70;;;5.13;;
15573;SDS011;7888;46.748;8.102;2023-02-28T16:45:56;6.17;;;5.57;;
15573;SDS011;7888;46.748;8.102;2023-02-28T16:48:25;5.80;;;5.30;;
15573;SDS011;7888;46.748;8.102;2023-02-28T16:50:50;5.73;;;5.13;;
15573;SDS011;7888;46.748;8.102;2023-02-28T16:53:16;6.37;;;5.77;;
15573;SDS011;7888;46.748;8.102;2023-02-28T16:55:43;6.27;;;5.00;;
15573;SDS011;7888;46.748;8.102;2023-02-28T16:58:11;6.73;;;5.77;;
15573;SDS011;7888;46.748;8.102;2023-02-28T17:00:41;5.70;;;5.20;;
15573;SDS011;7888;46.748;8.102;2023-02-28T17:03:18;6.27;;;5.53;;
15573;SDS011;7888;46.748;8.102;2023-02-28T17:05:49;6.90;;;5.83;;
15573;SDS011;7888;46.748;8.102;2023-02-28T17:08:15;5.87;;;5.27;;
15573;SDS011;7888;46.748;8.102;2023-02-28T17:10:41;6.30;;;5.70;;
15573;SDS011;7888;46.748;8.102;2023-02-28T17:13:07;5.93;;;5.40;;
15573;SDS011;7888;46.748;8.102;2023-02-28T17:15:34;6.27;;;5.50;;
15573;SDS011;7888;46.748;8.102;2023-02-28T17:18:01;6.03;;;5.53;;
15573;SDS011;7888;46.748;8.102;2023-02-28T17:20:28;6.53;;;5.93;;
15573;SDS011;7888;46.748;8.102;2023-02-28T17:22:55;6.90;;;6.27;;
15573;SDS011;7888;46.748;8.102;2023-02-28T17:25:22;6.50;;;5.90;;
15573;SDS011;7888;46.748;8.102;2023-02-28T17:27:49;6.10;;;5.47;;
15573;SDS011;7888;46.748;8.102;2023-02-28T17:30:22;5.83;;;5.33;;
15573;SDS011;7888;46.748;8.102;2023-02-28T17:32:52;6.57;;;5.97;;
15573;SDS011;7888;46.748;8.102;2023-02-28T17:35:22;7.13;;;6.07;;
15573;SDS011;7888;46.748;8.102;2023-02-28T17:37:48;6.23;;;5.63;;
15573;SDS011;7888;46.748;8.102;2023-02-28T17:40:16;5.47;;;4.93;;
15573;SDS011;7888;46.748;8.102;2023-02-28T17:42:45;8.63;;;6.00;;
15573;SDS011;7888;46.748;8.102;2023-02-28T17:45:11;6.50;;;5.80;;
15573;SDS011;7888;46.748;8.102;2023-02-28T17:47:39;5.67;;;5.17;;
15573;SDS011;7888;46.748;8.102;2023-02-28T17:50:12;6.53;;;5.93;;
15573;SDS011;7888;46.748;8.102;2023-02-28T17:52:42;6.63;;;5.93;;
15573;SDS011;7888;46.748;8.102;2023-02-28T17:55:08;9.37;;;6.87;;
15573;SDS011;7888;46.748;8.102;2023-02-28T17:57:35;8.23;;;6.60;;
15573;SDS011;7888;46.748;8.102;2023-02-28T18:00:00;6.87;;;6.10;;
15573;SDS011;7888;46.748;8.102;2023-02-28T18:02:31;7.03;;;5.70;;
15573;SDS011;7888;46.748;8.102;2023-02-28T18:04:57;7.07;;;6.00;;
15573;SDS011;7888;46.748;8.102;2023-02-28T18:07:23;8.73;;;6.53;;
15573;SDS011;7888;46.748;8.102;2023-02-28T18:09:50;7.50;;;6.80;;
15573;SDS011;7888;46.748;8.102;2023-02-28T18:12:16;6.87;;;6.17;;
15573;SDS011;7888;46.748;8.102;2023-02-28T18:14:42;8.33;;;6.60;;
15573;SDS011;7888;46.748;8.102;2023-02-28T18:17:09;7.83;;;6.33;;
15573;SDS011;7888;46.748;8.102;2023-02-28T18:19:37;7.27;;;6.20;;
15573;SDS011;7888;46.748;8.102;2023-02-28T18:22:03;7.33;;;6.57;;
15573;SDS011;7888;46.748;8.102;2023-02-28T18:24:33;6.50;;;5.90;;
15573;SDS011;7888;46.748;8.102;2023-02-28T18:27:00;7.77;;;6.97;;
15573;SDS011;7888;46.748;8.102;2023-02-28T18:29:26;6.80;;;6.20;;